Disclaimer

Please do not use the information listed here in-flight or in-navigation, as they are not provided to us by the airports but are provided by volunteers, so they might be outdated.

Search


Regions


Airport information page

Radio informations:
Tower (TWR) - 119.7 MHz

Airport informations:
Latitude: 60° 53' 47.02" N
Longitude: 026° 56' 18.07" E
Elevation: 339 feet - 103 meters
Operating hours: N/A
Operating agency: Military
Timezone: UTC+2(+3DT) - Last Sunday in March to last Sunday in October
Fuel: 100/130 MIL Spec, low lead, aviation gasoline (BLUE)

Runway information:
07/25 - 6562 x 148 feet< - >2000 x 45 meters

Recent METARs:
EFUT 180920Z AUTO 36013KT 340V040 9999 BKN033 03/M02 Q1034
EFUT 180950Z AUTO 36014G24KT 340V040 9999 SCT027 SCT034 04/M02 Q1034
EFUT 181020Z AUTO 02014KT 340V060 9999 BKN027 03/M02 Q1034

Airport on the map: